Seattle, Washington
Traffic Map
Current Weather Conditions
Seattle, Washington
Overcast Light Rain
Overcast
54°
Feels Like: 54°
Wind Chill: 54° Ceiling: 3600
Heat Index: 54° Visibility: 10mi
Dew Point: 49° Wind: 8mph
Humidity: 83% Direction: 160° (SSE)
Pressure: 30in Gusts: 17mph
Raw Report DataKBFI 170153Z 16007G15KT 10SM -RA FEW020 OVC036 12/09 A3000 RMK AO2 SLP158 P0003 T01220094
Traffic Incident Summary
Active as of:
Severity:
Category:
InformationThere was an issue retrieving the traffic information for this location. Please try a different location or try again shortly.
Advertisements
At Last! Intellicast now available for iPhone and Android